Willkommen auf unserer neuen Website. Prüfen Sie unsere Fortschritte regelmäßig.
Bitte teilen Sie uns mit, wie Ihnen der neue Aufbau gefällt.

Wetter Webcam  Wetter Webcam


Thunder radar mehr Informationen blitzortung!


Rain radar mehr Informationen rain snow radar


Sie finden unser Wetter-Infos auch auf:

Citizen Weather Observer Program (CWOP)


Von uns verwendete Ausrüstung:

Davis VP2

Meteohub

Modell ALIX.3D3


Es ist keine erhöhte Aufmerksamkeit aufgrund des Wetters notwendig.    Es gibt keine Warnungen.

METAR-Meldungen aus der Umgebung

   
ETNN - Noervenich (gaf), Germany
Entfernung von der Station bis: SSW 17 km
Aktualisierung: 24-06-2017 05:20
Teilweise bewölkt  
Teilweise bewölkt  
   Wind: Westen 14.8 km/h
Wind: Westen 14.8 km/h
Temperatur: 15°C
Taupunkt: 10°C
Luftfeuchte: 72%
Luftdruck: 1017 hPa
Bewölkt: Teilweise bewölkt
Sichtbarkeit: More than 10 km
Bewölkung: leicht bewölkt 12000 ft,
Teilweise bewölkt 24000 ft
ETNN 240320Z 26008KT 9999 FEW120 SCT240 15/10 Q1017 BLU+
EDDK - Koeln/Bonn, Germany
Entfernung von der Station bis: OSO 29 km
Aktualisierung: 24-06-2017 05:20
Klar  
Klar  
   Wind: SW 11.1 km/h
Wind: SW 11.1 km/h
Temperatur: 14°C
Taupunkt: 10°C
Luftfeuchte: 77%
Luftdruck: 1017 hPa
Sichtbarkeit: More than 10 km
Bewölkung: Klar
EDDK 240320Z 22006KT CAVOK 14/10 Q1017 NOSIG
EDLN - Monchengladbach, Germany
Entfernung von der Station bis: NNW 36 km
Aktualisierung: 23-06-2017 20:20
Nicht aktuell
Klar  
Klar  
   Wind: Westen 13 km/h
Wind: Westen 13 km/h
Temperatur: 24°C
Taupunkt: 12°C
Luftfeuchte: 47%
Luftdruck: 1015 hPa
Sichtbarkeit: More than 10 km
Bewölkung: Klar
EDLN 231820Z 26007KT 190V310 CAVOK 24/12 Q1015
EDDL - Duesseldorf, Germany
Entfernung von der Station bis: 0 38 km
Aktualisierung: 24-06-2017 05:20
Stark bewölkt  
Stark bewölkt  
   Wind: SW 20.4 km/h
Wind: SW 20.4 km/h
Temperatur: 15°C
Taupunkt: 11°C
Luftfeuchte: 77%
Luftdruck: 1016 hPa
Bewölkt: Stark bewölkt
Sichtbarkeit: More than 10 km
Bewölkung: Stark bewölkt 3400 ft
EDDL 240320Z 22011KT 9999 BKN034 15/11 Q1016 NOSIG
ETNG - Geilenkirchen(Na, Germany
Entfernung von der Station bis: W 51 km
Aktualisierung: 23-06-2017 18:50
Nicht aktuell
Klar  
Klar  
   Wind: WSW 25.9 km/h<br />Gust to 25.9 km/h
Wind: WSW 25.9 km/h
Gust to 25.9 km/h
Temperatur: 25°C
Taupunkt: 13°C
Luftfeuchte: 47%
Luftdruck: 1016 hPa
Sichtbarkeit: More than 10 km
Bewölkung: Klar
ETNG 231650Z 25014G26KT CAVOK 25/13 Q1016 NOSIG
EBLB - Elsenborn (mil), Belgium
Entfernung von der Station bis: SW 69 km
Aktualisierung: 24-06-2017 04:55
Stark bewölkt  
Stark bewölkt  
   Wind: Westen 16.7 km/h
Wind: Westen 16.7 km/h
Temperatur: 11°C
Taupunkt: 9°C
Luftfeuchte: 88%
Luftdruck: 1018 hPa
Bewölkt: Stark bewölkt
Sichtbarkeit: More than 10 km
Bewölkung: Stark bewölkt 1600 ft
EBLB 240255Z AUTO 26009KT 9999 BKN016/// 11/09 Q1018 WHT

Script entwickelt von  Saratoga-weather.org Angepasst für das Template von  Weerstation Leuven